Flight Track Log - Related Links

Times and Time Zones

All times are in EDT time to prevent confusion due to time zone crossing. See the AWI3778 flight status page for this flight to view local times or setup timezone preferences in your user account.

Time Position Orientation Groundspeed Altitude Reporting Facility
EDT Latitude Longitude Course Direction KTS MPH feet Rate Location/Type
Sat 02:42:53 PM 30.4736 -81.6753 19° North 148 170 700  Level Jacksonville Center
Sat 02:43:48 PM 30.4919 -81.6317 64° Northeast 214 246 2,700 1,944 Climbing Jacksonville Center
Sat 02:44:04 PM 30.4983 -81.6317 360° North 211 243 3,000 2,060 Climbing Jacksonville Center
Sat 02:44:55 PM 30.5694 -81.6381 356° North 271 312 5,000 2,625 Climbing Jacksonville Center
Sat 02:45:00 PM 30.6956 -81.4504 44° Northeast  Level FlightAware Approximate
Sat 02:45:56 PM 30.6425 -81.6467 354° North 264 304 7,900  Level Jacksonville Center
Sat 02:46:00 PM 30.7651 -81.3709 44° Northeast  Level FlightAware Approximate
Sat 02:46:52 PM 30.7114 -81.6531 355° North 269 310 9,800  Level Jacksonville Center
Sat 02:47:00 PM 30.8438 -81.3046 33° Northeast  Level FlightAware Approximate
Sat 02:48:00 PM 30.9217 -81.2546 19° North  Level FlightAware Approximate
Sat 02:48:04 PM 30.7992 -81.6614 355° North 290 334 12,200  Level Jacksonville Center
Sat 02:49:04 PM 30.8850 -81.6653 358° North 297 342 14,000 1,850 Climbing Jacksonville Center
Sat 02:50:04 PM 30.9725 -81.6667 359° North 307 353 15,900 1,800 Climbing Jacksonville Center
Sat 02:51:04 PM 31.0667 -81.6703 358° North 319 367 17,600 1,050 Climbing Jacksonville Center
Sat 02:52:04 PM 31.1628 -81.6786 356° North 332 382 18,000 900 Climbing Jacksonville Center
Sat 02:53:04 PM 31.2647 -81.6603 North 352 405 19,400 1,250 Climbing Jacksonville Center
Sat 02:54:04 PM 31.3644 -81.6006 27° Northeast 370 426 20,500 1,250 Climbing Jacksonville Center
Sat 02:55:04 PM 31.4786 -81.5431 23° Northeast 392 451 21,900 1,200 Climbing Jacksonville Center
Sat 02:56:04 PM 31.5700 -81.4953 24° Northeast 392 451 22,900 900 Climbing Jacksonville Center
Sat 02:57:04 PM 31.6864 -81.4375 23° Northeast 397 457 23,700 750 Climbing Jacksonville Center
Sat 02:58:04 PM 31.7922 -81.3819 24° Northeast 410 472 24,400 700 Climbing Jacksonville Center
Sat 02:59:04 PM 31.8897 -81.3314 24° Northeast 417 480 25,100 650 Climbing Jacksonville Center
Sat 03:00:04 PM 31.9933 -81.2636 29° Northeast 417 480 25,700 700 Climbing Jacksonville Center
Sat 03:01:04 PM 32.0731 -81.1542 49° Northeast 417 480 26,500 700 Climbing Jacksonville Center
Sat 03:02:04 PM 32.1633 -81.0347 48° Northeast 428 493 27,100 450 Climbing Jacksonville Center
Sat 03:03:04 PM 32.2453 -80.9250 49° Northeast 443 510 27,400 850 Climbing Jacksonville Center
Sat 03:04:04 PM 32.3189 -80.8275 48° Northeast 438 504 28,800 1,200 Climbing Jacksonville Center
Sat 03:05:04 PM 32.3964 -80.7175 50° Northeast 432 497 29,800 900 Climbing Jacksonville Center
Sat 03:06:04 PM 32.4739 -80.6147 48° Northeast 427 491 30,600 750 Climbing Jacksonville Center
Sat 03:07:04 PM 32.5511 -80.5069 50° Northeast 427 491 31,300 700 Climbing Jacksonville Center
Sat 03:08:04 PM 32.6306 -80.4011 48° Northeast 427 491 32,000 700 Climbing Jacksonville Center
Sat 03:09:04 PM 32.7097 -80.2928 49° Northeast 432 497 32,700 500 Climbing Jacksonville Center
Sat 03:10:04 PM 32.7867 -80.1844 50° Northeast 432 497 33,000 150 Climbing Jacksonville Center
Sat 03:11:04 PM 32.8678 -80.0706 50° Northeast 437 503 33,000  Level Jacksonville Center
Sat 03:12:04 PM 32.9828 -79.9853 32° Northeast 437 503 33,000  Level Jacksonville Center
Sat 03:13:04 PM 33.0919 -79.9247 25° Northeast 432 497 33,000  Level Jacksonville Center
Sat 03:14:04 PM 33.2011 -79.8667 24° Northeast 424 488 33,000  Level Jacksonville Center
Sat 03:15:04 PM 33.3061 -79.8083 25° Northeast 419 482 33,000  Level Jacksonville Center
Sat 03:16:04 PM 33.4111 -79.7500 25° Northeast 414 476 33,000  Level Jacksonville Center
Sat 03:17:04 PM 33.5142 -79.6939 24° Northeast 414 476 33,000  Level Jacksonville Center
Sat 03:18:04 PM 33.6169 -79.6353 25° Northeast 414 476 33,000  Level Jacksonville Center
Sat 03:19:04 PM 33.7197 -79.5742 26° Northeast 414 476 33,000  Level Jacksonville Center
Sat 03:20:04 PM 33.8228 -79.5203 23° Northeast 409 471 33,000  Level Jacksonville Center
Sat 03:21:04 PM 33.9233 -79.4589 27° Northeast 409 471 33,000  Level Jacksonville Center
Sat 03:22:04 PM 34.0097 -79.4128 24° Northeast 388 447 33,000  Level Jacksonville Center
Sat 03:23:04 PM 34.1103 -79.3561 25° Northeast 381 438 33,000  Level Jacksonville Center
Sat 03:24:41 PM 34.2719 -79.2636 25° Northeast 399 459 33,000  Level Washington Center
Sat 03:25:41 PM 34.3739 -79.2050 25° Northeast 405 466 33,000  Level Washington Center
Sat 03:26:39 PM 34.4736 -79.1467 26° Northeast 405 466 33,000  Level Washington Center
Sat 03:27:40 PM 34.5736 -79.0878 26° Northeast 400 460 33,000 -443 Level Washington Center
Sat 03:28:41 PM 34.6733 -79.0289 26° Northeast 395 455 32,100 -992 Descending Washington Center
Sat 03:29:41 PM 34.7772 -78.9678 26° Northeast 395 455 31,000 -545 Descending Washington Center
Sat 03:30:42 PM 34.8833 -78.9061 25° Northeast 406 467 31,000  Level Washington Center
Sat 03:31:39 PM 34.9872 -78.8472 25° Northeast 406 467 31,000  Level Washington Center
Sat 03:32:40 PM 35.0869 -78.7878 26° Northeast 406 467 31,000  Level Washington Center
Sat 03:33:41 PM 35.1886 -78.7281 26° Northeast 406 467 31,000  Level Washington Center
Sat 03:34:41 PM 35.2903 -78.6686 26° Northeast 400 460 31,000  Level Washington Center
Sat 03:35:40 PM 35.4006 -78.6039 26° Northeast 401 461 31,000  Level Washington Center
Sat 03:36:40 PM 35.5019 -78.5439 26° Northeast 396 456 31,000  Level Washington Center
Sat 03:37:41 PM 35.6017 -78.4839 26° Northeast 396 456 31,000  Level Washington Center
Sat 03:38:39 PM 35.7053 -78.4236 25° Northeast 396 456 31,000  Level Washington Center
Sat 03:39:40 PM 35.8025 -78.3656 26° Northeast 390 449 31,000  Level Washington Center
Sat 03:40:42 PM 35.9000 -78.3075 26° Northeast 390 449 31,000 -151 Level Washington Center
Sat 03:41:39 PM 35.9994 -78.2492 25° Northeast 390 449 30,700 -864 Descending Washington Center
Sat 03:42:40 PM 36.1050 -78.1861 26° Northeast 390 449 29,300 -1,438 Descending Washington Center
Sat 03:43:40 PM 36.2150 -78.1175 27° Northeast 410 472 27,800 -1,140 Descending Washington Center
Sat 03:44:41 PM 36.3292 -78.0489 26° Northeast 432 497 27,000 -400 Descending Washington Center
Sat 03:45:40 PM 36.4306 -77.9850 27° Northeast 427 491 27,000  Level Washington Center
Sat 03:46:41 PM 36.5361 -77.9211 26° Northeast 420 483 27,000  Level Washington Center
Sat 03:47:41 PM 36.6439 -77.8544 26° Northeast 420 483 27,000  Level Washington Center
Sat 03:48:40 PM 36.7536 -77.7875 26° Northeast 425 489 27,000  Level Washington Center
Sat 03:49:40 PM 36.8650 -77.7389 19° North 425 489 27,000  Level Washington Center
Sat 03:50:41 PM 36.9806 -77.6928 18° North 425 489 27,000 -756 Level Washington Center
Sat 03:51:39 PM 37.0961 -77.6489 17° North 425 489 25,500 -1,513 Descending Washington Center
Sat 03:52:40 PM 37.2117 -77.6025 18° North 425 489 24,000 -1,463 Descending Washington Center
Sat 03:53:42 PM 37.3272 -77.5533 19° North 425 489 22,500 -1,008 Descending Washington Center
Sat 03:54:39 PM 37.4383 -77.5092 18° North 425 489 22,000 -407 Descending Washington Center
Sat 03:55:40 PM 37.5475 -77.4672 17° North 414 476 21,700 -1,050 Descending Washington Center
Sat 03:56:39 PM 37.6525 -77.4228 19° North 403 464 19,900 -1,916 Descending Washington Center
Sat 03:57:39 PM 37.7533 -77.3778 19° North 398 458 17,900 -1,770 Descending Washington Center
Sat 03:58:41 PM 37.8561 -77.3381 17° North 392 451 16,300 -1,770 Descending Washington Center
Sat 03:59:41 PM 37.9547 -77.2956 19° North 382 440 14,300 -2,050 Descending Washington Center
Sat 04:00:41 PM 38.0489 -77.2636 15° North 369 425 12,200 -2,085 Descending Washington Center
Sat 04:01:39 PM 38.1392 -77.2258 18° North 345 397 10,200 -1,119 Descending Washington Center
Sat 04:02:39 PM 38.2147 -77.1933 19° North 314 361 10,000 -99 Descending Washington Center
Sat 04:03:40 PM 38.2903 -77.1578 20° North 294 338 10,000 -446 Level Washington Center
Sat 04:04:40 PM 38.3614 -77.1356 14° North 276 318 9,100 -1,200 Descending Washington Center
Sat 04:05:40 PM 38.4325 -77.1131 14° North 270 311 7,600 -1,537 Descending Washington Center
Sat 04:06:41 PM 38.5078 -77.0961 10° North 264 304 6,000 -1,388 Descending Washington Center
Sat 04:07:41 PM 38.5706 -77.0786 12° North 251 289 4,800 -1,017 Descending Washington Center
Sat 04:08:39 PM 38.6208 -77.0692 North 212 244 4,000 -875 Descending Washington Center
Sat 04:09:17 PM 38.6500 -77.0500 27° Northeast 178 205 3,400 -947 Descending Potomac TRACON

Login

Don't have an account? Register now (free) for customized features, flight alerts, and more!